Time,TemperatureF,DewpointF,PressureIn,WindDirection,WindDirectionDegrees,WindSpeedMPH,WindSpeedGustMPH,Humidity,HourlyPrecipIn,Conditions,Clouds,dailyrainin,SoftwareType,DateUTC
2013-07-05 00:00:00,70.3,54.0,29.56,West,261,0.0,-999.0,56,-99.99,,,0.00,weatherlink.com 1.10,2013-07-05 07:00:00,
2013-07-05 00:15:00,70.2,54.0,29.57,NW,304,0.0,-999.0,57,-99.99,,,0.00,weatherlink.com 1.10,2013-07-05 07:15:00,
2013-07-05 00:30:00,70.3,54.0,29.56,NNW,333,0.0,-999.0,57,-99.99,,,0.00,weatherlink.com 1.10,2013-07-05 07:30:00,
2013-07-05 00:45:00,69.8,54.0,29.56,NNE,32,0.0,-999.0,57,-99.99,,,0.00,weatherlink.com 1.10,2013-07-05 07:45:00,
2013-07-05 01:02:00,68.8,53.0,29.56,NNE,32,0.0,-999.0,58,-99.99,,,0.00,weatherlink.com 1.10,2013-07-05 08:02:00,
2013-07-05 01:15:00,68.8,54.0,29.56,ENE,68,0.0,-999.0,60,-99.99,,,0.00,weatherlink.com 1.10,2013-07-05 08:15:00,
2013-07-05 01:30:00,69.3,54.0,29.56,NNE,31,0.0,-999.0,59,-99.99,,,0.00,weatherlink.com 1.10,2013-07-05 08:30:00,
2013-07-05 01:45:00,69.8,53.0,29.56,North,11,0.0,-999.0,56,-99.99,,,0.00,weatherlink.com 1.10,2013-07-05 08:45:00,
2013-07-05 02:00:00,70.2,54.0,29.56,North,4,0.0,-999.0,56,-99.99,,,0.00,weatherlink.com 1.10,2013-07-05 09:00:00,
2013-07-05 02:15:00,70.5,53.0,29.56,North,0,2.0,-999.0,55,-99.99,,,0.00,weatherlink.com 1.10,2013-07-05 09:15:00,
2013-07-05 02:30:00,70.3,54.0,29.54,NNE,14,1.0,-999.0,57,-99.99,,,0.00,weatherlink.com 1.10,2013-07-05 09:30:00,
2013-07-05 02:45:00,70.2,52.0,29.54,North,0,7.0,-999.0,52,-99.99,,,0.00,weatherlink.com 1.10,2013-07-05 09:45:00,
2013-07-05 03:00:00,70.5,51.0,29.55,NNE,17,0.0,-999.0,50,-99.99,,,0.00,weatherlink.com 1.10,2013-07-05 10:00:00,
2013-07-05 03:15:00,70.0,51.0,29.54,NE,40,1.0,-999.0,52,-99.99,,,0.00,weatherlink.com 1.10,2013-07-05 10:15:00,
2013-07-05 04:00:00,69.7,52.0,29.52,NNW,330,3.0,-999.0,54,-99.99,,,0.00,weatherlink.com 1.10,2013-07-05 11:00:00,
2013-07-05 04:30:00,69.2,52.0,29.54,North,0,0.0,-999.0,54,-99.99,,,0.00,weatherlink.com 1.10,2013-07-05 11:30:00,
2013-07-05 04:45:00,68.5,51.0,29.54,North,11,0.0,-999.0,54,-99.99,,,0.00,weatherlink.com 1.10,2013-07-05 11:45:00,
2013-07-05 05:15:00,69.3,50.0,29.54,NE,34,0.0,-999.0,50,-99.99,,,0.00,weatherlink.com 1.10,2013-07-05 12:15:00,
2013-07-05 05:30:00,69.8,50.0,29.54,NNE,20,0.0,-999.0,49,-99.99,,,0.00,weatherlink.com 1.10,2013-07-05 12:30:00,
2013-07-05 05:45:00,69.8,50.0,29.54,NE,52,0.0,-999.0,49,-99.99,,,0.00,weatherlink.com 1.10,2013-07-05 12:45:00,
2013-07-05 06:00:00,69.8,49.0,29.55,NNE,20,0.0,-999.0,48,-99.99,,,0.00,weatherlink.com 1.10,2013-07-05 13:00:00,
2013-07-05 06:16:00,70.2,49.0,29.55,West,275,3.0,-999.0,48,-99.99,,,0.00,weatherlink.com 1.10,2013-07-05 13:16:00,
2013-07-05 06:30:00,70.3,50.0,29.55,ESE,116,0.0,-999.0,49,-99.99,,,0.00,weatherlink.com 1.10,2013-07-05 13:30:00,
2013-07-05 06:45:00,69.5,50.0,29.55,ESE,104,2.0,-999.0,50,-99.99,,,0.00,weatherlink.com 1.10,2013-07-05 13:45:00,
2013-07-05 07:00:00,68.8,51.0,29.55,South,188,0.0,-999.0,53,-99.99,,,0.00,weatherlink.com 1.10,2013-07-05 14:00:00,
2013-07-05 07:15:00,70.5,50.0,29.56,SE,145,0.0,-999.0,49,-99.99,,,0.00,weatherlink.com 1.10,2013-07-05 14:15:00,
2013-07-05 07:30:00,71.0,51.0,29.57,SSW,196,1.0,-999.0,50,-99.99,,,0.00,weatherlink.com 1.10,2013-07-05 14:30:00,
2013-07-05 08:00:00,71.5,52.0,29.58,SSE,167,0.0,-999.0,51,-99.99,,,0.00,weatherlink.com 1.10,2013-07-05 15:00:00,
2013-07-05 08:15:00,71.2,53.0,29.58,SSE,167,2.0,-999.0,52,-99.99,,,0.00,weatherlink.com 1.10,2013-07-05 15:15:00,
2013-07-05 08:30:00,71.3,53.0,29.59,East,99,0.0,-999.0,53,-99.99,,,0.00,weatherlink.com 1.10,2013-07-05 15:30:00,
2013-07-05 08:48:00,73.6,51.0,29.59,ESE,117,2.0,-999.0,46,-99.99,,,0.00,weatherlink.com 1.10,2013-07-05 15:48:00,
2013-07-05 09:00:00,74.6,52.0,29.59,SE,127,4.0,-999.0,45,-99.99,,,0.00,weatherlink.com 1.10,2013-07-05 16:00:00,
2013-07-05 09:15:00,75.1,53.0,29.58,SE,136,7.0,-999.0,46,-99.99,,,0.00,weatherlink.com 1.10,2013-07-05 16:15:00,
2013-07-05 09:30:00,75.6,53.0,29.58,SE,126,2.0,-999.0,45,-99.99,,,0.00,weatherlink.com 1.10,2013-07-05 16:30:00,
2013-07-05 09:45:00,76.9,53.0,29.57,SE,145,2.0,-999.0,43,-99.99,,,0.00,weatherlink.com 1.10,2013-07-05 16:45:00,
2013-07-05 10:00:00,77.9,53.0,29.57,SSW,199,1.0,-999.0,42,-99.99,,,0.00,weatherlink.com 1.10,2013-07-05 17:00:00,
2013-07-05 10:15:00,77.7,52.0,29.57,ESE,109,8.0,-999.0,41,-99.99,,,0.00,weatherlink.com 1.10,2013-07-05 17:15:00,
2013-07-05 10:30:00,79.2,54.0,29.57,SE,144,6.0,-999.0,42,-99.99,,,0.00,weatherlink.com 1.10,2013-07-05 17:30:00,
2013-07-05 10:45:00,78.8,51.0,29.57,ESE,110,0.0,-999.0,38,-99.99,,,0.00,weatherlink.com 1.10,2013-07-05 17:45:00,
2013-07-05 11:00:00,79.5,52.0,29.57,South,175,2.0,-999.0,39,-99.99,,,0.00,weatherlink.com 1.10,2013-07-05 18:00:00,
2013-07-05 11:15:00,79.5,52.0,29.58,West,263,0.0,-999.0,38,-99.99,,,0.00,weatherlink.com 1.10,2013-07-05 18:15:00,
2013-07-05 11:31:00,80.5,53.0,29.58,West,271,2.0,-999.0,38,-99.99,,,0.00,weatherlink.com 1.10,2013-07-05 18:31:00,
2013-07-05 11:46:00,81.0,52.0,29.58,West,272,0.0,-999.0,37,-99.99,,,0.00,weatherlink.com 1.10,2013-07-05 18:46:00,
2013-07-05 12:01:00,80.1,53.0,29.59,SSE,160,0.0,-999.0,39,-99.99,,,0.00,weatherlink.com 1.10,2013-07-05 19:01:00,
2013-07-05 12:15:00,78.5,53.0,29.59,West,260,0.0,-999.0,42,-99.99,,,0.00,weatherlink.com 1.10,2013-07-05 19:15:00,
2013-07-05 12:30:00,81.4,54.0,29.59,WNW,282,0.0,-999.0,39,-99.99,,,0.00,weatherlink.com 1.10,2013-07-05 19:30:00,
2013-07-05 12:49:00,80.3,53.0,29.57,East,100,0.0,-999.0,39,-99.99,,,0.00,weatherlink.com 1.10,2013-07-05 19:49:00,
2013-07-05 13:00:00,81.6,54.0,29.57,NW,306,2.0,-999.0,39,-99.99,,,0.00,weatherlink.com 1.10,2013-07-05 20:00:00,
2013-07-05 13:15:00,82.5,53.0,29.58,WSW,256,0.0,-999.0,36,-99.99,,,0.00,weatherlink.com 1.10,2013-07-05 20:15:00,
2013-07-05 13:30:00,81.4,53.0,29.56,West,272,0.0,-999.0,38,-99.99,,,0.00,weatherlink.com 1.10,2013-07-05 20:30:00,
2013-07-05 13:45:00,81.2,53.0,29.57,South,186,0.0,-999.0,38,-99.99,,,0.00,weatherlink.com 1.10,2013-07-05 20:45:00,
2013-07-05 14:00:00,80.8,53.0,29.57,WNW,302,5.0,-999.0,38,-99.99,,,0.00,weatherlink.com 1.10,2013-07-05 21:00:00,
2013-07-05 14:15:00,80.8,54.0,29.57,NW,304,6.0,-999.0,39,-99.99,,,0.00,weatherlink.com 1.10,2013-07-05 21:15:00,
2013-07-05 14:31:00,81.6,54.0,29.57,WNW,288,0.0,-999.0,38,-99.99,,,0.00,weatherlink.com 1.10,2013-07-05 21:31:00,
2013-07-05 14:45:00,80.7,53.0,29.55,West,278,0.0,-999.0,38,-99.99,,,0.00,weatherlink.com 1.10,2013-07-05 21:45:00,
2013-07-05 15:00:00,81.2,53.0,29.56,WNW,287,0.0,-999.0,38,-99.99,,,0.00,weatherlink.com 1.10,2013-07-05 22:00:00,
2013-07-05 15:15:00,82.5,52.0,29.56,NNW,336,3.0,-999.0,35,-99.99,,,0.00,weatherlink.com 1.10,2013-07-05 22:15:00,
2013-07-05 15:41:00,84.3,53.0,29.54,WNW,298,6.0,-999.0,34,-99.99,,,0.00,weatherlink.com 1.10,2013-07-05 22:41:00,
2013-07-05 16:00:00,83.9,53.0,29.53,NW,308,0.0,-999.0,34,-99.99,,,0.00,weatherlink.com 1.10,2013-07-05 23:00:00,
2013-07-05 16:15:00,84.3,51.0,29.52,West,278,0.0,-999.0,32,-99.99,,,0.00,weatherlink.com 1.10,2013-07-05 23:15:00,
2013-07-05 16:30:00,81.6,51.0,29.53,SE,138,5.0,-999.0,34,-99.99,,,0.00,weatherlink.com 1.10,2013-07-05 23:30:00,
2013-07-05 16:45:00,82.3,51.0,29.54,WNW,291,2.0,-999.0,34,-99.99,,,0.00,weatherlink.com 1.10,2013-07-05 23:45:00,
2013-07-05 17:00:00,81.4,50.0,29.53,WNW,291,0.0,-999.0,33,-99.99,,,0.00,weatherlink.com 1.10,2013-07-06 00:00:00,
2013-07-05 17:15:00,81.4,50.0,29.53,West,275,0.0,-999.0,33,-99.99,,,0.00,weatherlink.com 1.10,2013-07-06 00:15:00,
2013-07-05 17:30:00,81.2,45.0,29.54,WSW,244,0.0,-999.0,28,-99.99,,,0.00,weatherlink.com 1.10,2013-07-06 00:30:00,
2013-07-05 17:45:00,80.1,44.0,29.55,West,275,5.0,-999.0,28,-99.99,,,0.00,weatherlink.com 1.10,2013-07-06 00:45:00,
2013-07-05 18:00:00,79.5,47.0,29.54,West,274,2.0,-999.0,32,-99.99,,,0.00,weatherlink.com 1.10,2013-07-06 01:00:00,
2013-07-05 18:15:00,79.7,46.0,29.54,WNW,294,0.0,-999.0,30,-99.99,,,0.00,weatherlink.com 1.10,2013-07-06 01:15:00,
2013-07-05 18:30:00,77.9,46.0,29.55,WNW,299,1.0,-999.0,32,-99.99,,,0.00,weatherlink.com 1.10,2013-07-06 01:30:00,
2013-07-05 18:45:00,77.9,45.0,29.56,WNW,285,0.0,-999.0,31,-99.99,,,0.00,weatherlink.com 1.10,2013-07-06 01:45:00,
2013-07-05 19:00:00,76.9,44.0,29.56,North,0,0.0,-999.0,31,-99.99,,,0.00,weatherlink.com 1.10,2013-07-06 02:00:00,
2013-07-05 19:15:00,75.3,44.0,29.57,North,349,0.0,-999.0,33,-99.99,,,0.00,weatherlink.com 1.10,2013-07-06 02:15:00,
2013-07-05 19:30:00,73.9,41.0,29.57,North,353,4.0,-999.0,31,-99.99,,,0.00,weatherlink.com 1.10,2013-07-06 02:30:00,
2013-07-05 19:45:00,73.2,41.0,29.57,North,0,6.0,-999.0,31,-99.99,,,0.00,weatherlink.com 1.10,2013-07-06 02:45:00,
2013-07-05 20:00:00,72.7,41.0,29.58,NW,313,0.0,-999.0,32,-99.99,,,0.00,weatherlink.com 1.10,2013-07-06 03:00:00,
2013-07-05 20:15:00,72.4,42.0,29.58,North,0,0.0,-999.0,33,-99.99,,,0.00,weatherlink.com 1.10,2013-07-06 03:15:00,
2013-07-05 20:31:00,72.2,41.0,29.57,NNE,14,0.0,-999.0,32,-99.99,,,0.00,weatherlink.com 1.10,2013-07-06 03:31:00,
2013-07-05 20:45:00,71.8,41.0,29.58,North,357,0.0,-999.0,33,-99.99,,,0.00,weatherlink.com 1.10,2013-07-06 03:45:00,
2013-07-05 21:00:00,71.7,42.0,29.58,North,10,0.0,-999.0,34,-99.99,,,0.00,weatherlink.com 1.10,2013-07-06 04:00:00,
2013-07-05 21:15:00,71.5,42.0,29.58,North,0,2.0,-999.0,35,-99.99,,,0.00,weatherlink.com 1.10,2013-07-06 04:15:00,
2013-07-05 21:30:00,71.5,44.0,29.57,North,8,5.0,-999.0,38,-99.99,,,0.00,weatherlink.com 1.10,2013-07-06 04:30:00,
2013-07-05 21:45:00,71.2,45.0,29.57,North,354,6.0,-999.0,39,-99.99,,,0.00,weatherlink.com 1.10,2013-07-06 04:45:00,
2013-07-05 22:00:00,70.8,47.0,29.57,North,7,0.0,-999.0,43,-99.99,,,0.00,weatherlink.com 1.10,2013-07-06 05:00:00,
2013-07-05 22:15:00,70.2,48.0,29.58,North,0,1.0,-999.0,45,-99.99,,,0.00,weatherlink.com 1.10,2013-07-06 05:15:00,
2013-07-05 22:30:00,69.8,43.0,29.57,NNW,347,3.0,-999.0,38,-99.99,,,0.00,weatherlink.com 1.10,2013-07-06 05:30:00,
2013-07-05 22:45:00,70.0,35.0,29.58,SE,137,0.0,-999.0,28,-99.99,,,0.00,weatherlink.com 1.10,2013-07-06 05:45:00,
2013-07-05 23:00:00,69.8,33.0,29.59,North,8,0.0,-999.0,26,-99.99,,,0.00,weatherlink.com 1.10,2013-07-06 06:00:00,
2013-07-05 23:15:00,69.8,33.0,29.59,NNE,27,0.0,-999.0,26,-99.99,,,0.00,weatherlink.com 1.10,2013-07-06 06:15:00,
2013-07-05 23:30:00,69.8,31.0,29.58,NE,37,2.0,-999.0,24,-99.99,,,0.00,weatherlink.com 1.10,2013-07-06 06:30:00,
2013-07-05 23:45:00,69.7,30.0,29.58,NNW,329,3.0,-999.0,23,-99.99,,,0.00,weatherlink.com 1.10,2013-07-06 06:45:00,